createdAt,value
2022-08-25T00:01:55.524Z,38.19
2022-08-25T00:04:23.059Z,38.31
2022-08-25T00:06:51.062Z,38.38
2022-08-25T00:09:20.925Z,37.78
2022-08-25T00:11:49.348Z,37.56
2022-08-25T00:14:18.193Z,37.92
2022-08-25T00:16:45.582Z,37.87
2022-08-25T00:19:15.403Z,37.90
2022-08-25T00:21:42.997Z,37.94
2022-08-25T00:24:10.474Z,38.50
2022-08-25T00:26:42.576Z,38.30
2022-08-25T00:29:10.188Z,38.29
2022-08-25T00:31:39.065Z,38.51
2022-08-25T00:34:11.175Z,38.40
2022-08-25T00:36:38.755Z,37.81
2022-08-25T00:39:06.617Z,37.94
2022-08-25T00:41:35.390Z,38.39
2022-08-25T00:44:04.681Z,37.77
2022-08-25T00:46:33.410Z,38.49
2022-08-25T00:49:02.461Z,38.72
2022-08-25T00:51:32.992Z,38.21
2022-08-25T00:54:00.885Z,38.88
2022-08-25T00:56:28.499Z,38.75
2022-08-25T00:58:57.129Z,38.75
2022-08-25T01:01:24.845Z,38.53
2022-08-25T01:03:52.514Z,38.53
2022-08-25T01:06:20.559Z,38.46
2022-08-25T01:08:48.025Z,38.42
2022-08-25T01:11:15.454Z,38.34
2022-08-25T01:13:45.335Z,38.52
2022-08-25T01:16:13.118Z,38.57
2022-08-25T01:19:00.675Z,38.53
2022-08-25T01:21:28.597Z,38.77
2022-08-25T01:23:58.346Z,38.70
2022-08-25T01:26:30.699Z,38.54
2022-08-25T01:29:17.636Z,39.07
2022-08-25T01:31:45.386Z,38.42
2022-08-25T01:34:13.109Z,38.60
2022-08-25T01:36:40.795Z,39.07
2022-08-25T01:39:08.160Z,39.47
2022-08-25T01:41:41.999Z,39.55
2022-08-25T01:44:12.361Z,39.68
2022-08-25T01:46:44.413Z,40.72
2022-08-25T01:49:11.868Z,40.81
2022-08-25T01:51:52.865Z,41.13
2022-08-25T01:54:20.339Z,41.68
2022-08-25T01:56:48.112Z,40.97
2022-08-25T01:59:16.845Z,40.15
2022-08-25T02:01:51.935Z,39.42
2022-08-25T02:04:29.602Z,40.48
2022-08-25T02:06:57.094Z,40.67
2022-08-25T02:09:24.930Z,40.47
2022-08-25T02:11:52.356Z,40.77
2022-08-25T02:14:20.179Z,41.11
2022-08-25T02:16:48.805Z,40.79
2022-08-25T02:19:16.644Z,41.64
2022-08-25T02:21:44.081Z,40.89
2022-08-25T02:24:12.192Z,41.53
2022-08-25T02:26:39.578Z,41.07
2022-08-25T02:29:07.596Z,41.59
2022-08-25T02:31:35.855Z,41.06
2022-08-25T02:34:03.641Z,41.15
2022-08-25T02:36:32.330Z,40.77
2022-08-25T02:38:59.919Z,41.23
2022-08-25T02:41:31.073Z,41.11
2022-08-25T02:43:59.444Z,41.17
2022-08-25T02:46:27.065Z,40.61
2022-08-25T02:48:55.403Z,41.08
2022-08-25T02:51:23.298Z,41.41
2022-08-25T02:53:50.785Z,40.96
2022-08-25T02:56:18.408Z,40.86
2022-08-25T02:58:46.087Z,40.62
2022-08-25T03:01:13.934Z,41.69
2022-08-25T03:03:42.186Z,40.71
2022-08-25T03:06:12.686Z,41.58
2022-08-25T03:08:40.329Z,41.40
2022-08-25T03:11:07.691Z,41.19
2022-08-25T03:13:35.436Z,41.08
2022-08-25T03:16:03.305Z,41.14
2022-08-25T03:18:32.113Z,41.47
2022-08-25T03:20:59.655Z,41.52
2022-08-25T03:23:27.129Z,41.35
2022-08-25T03:26:13.573Z,42.09
2022-08-25T03:28:41.844Z,41.36
2022-08-25T03:31:09.257Z,41.79
2022-08-25T03:33:37.010Z,42.00
2022-08-25T03:36:05.613Z,42.03
2022-08-25T03:38:33.659Z,42.67
2022-08-25T03:41:02.176Z,42.39
2022-08-25T03:43:29.770Z,42.57
2022-08-25T03:45:57.465Z,42.44
2022-08-25T03:48:25.202Z,41.21
2022-08-25T03:50:54.969Z,42.26
2022-08-25T03:53:22.709Z,41.29
2022-08-25T03:55:50.288Z,41.55
2022-08-25T03:58:18.287Z,41.71
2022-08-25T04:00:45.766Z,41.67
2022-08-25T04:03:13.249Z,42.14
2022-08-25T04:05:41.016Z,41.63
2022-08-25T04:08:09.369Z,42.17
2022-08-25T04:10:37.415Z,42.16
2022-08-25T04:13:06.295Z,42.40
2022-08-25T04:15:33.765Z,41.97
2022-08-25T04:18:01.365Z,42.07
2022-08-25T04:20:29.008Z,42.37
2022-08-25T04:22:56.512Z,42.48
2022-08-25T04:25:23.933Z,41.70
2022-08-25T04:27:51.616Z,41.31
2022-08-25T04:30:19.299Z,41.32
2022-08-25T04:32:48.426Z,41.34
2022-08-25T04:35:16.096Z,41.25
2022-08-25T04:37:43.599Z,41.62
2022-08-25T04:40:11.600Z,41.13
2022-08-25T04:42:40.165Z,41.16
2022-08-25T04:45:07.703Z,41.35
2022-08-25T04:47:39.426Z,41.17
2022-08-25T04:50:07.448Z,41.10
2022-08-25T04:52:35.173Z,40.86
2022-08-25T04:55:02.583Z,41.16
2022-08-25T04:57:30.330Z,40.72
2022-08-25T04:59:58.824Z,40.35
2022-08-25T05:02:26.271Z,40.88
2022-08-25T05:04:53.899Z,40.77
2022-08-25T05:07:21.406Z,40.80
2022-08-25T05:09:48.843Z,41.04
2022-08-25T05:12:20.469Z,40.98
2022-08-25T05:14:48.777Z,40.81
2022-08-25T05:17:18.184Z,40.47
2022-08-25T05:19:45.610Z,40.61
2022-08-25T05:22:13.111Z,40.24
2022-08-25T05:24:41.153Z,40.88
2022-08-25T05:27:11.119Z,41.24
2022-08-25T05:29:38.569Z,40.84
2022-08-25T05:32:06.177Z,40.44
2022-08-25T05:34:33.771Z,40.21
2022-08-25T05:37:10.398Z,40.47
2022-08-25T05:39:39.799Z,40.41
2022-08-25T05:42:07.472Z,40.35
2022-08-25T05:44:35.390Z,40.55
2022-08-25T05:47:02.848Z,40.45
2022-08-25T05:49:36.350Z,40.56
2022-08-25T05:52:18.262Z,41.05
2022-08-25T05:54:47.862Z,40.37
2022-08-25T05:57:15.282Z,40.23
2022-08-25T05:59:42.666Z,40.06
2022-08-25T06:02:28.702Z,40.91
2022-08-25T06:04:56.145Z,40.64
2022-08-25T06:07:23.644Z,39.70
2022-08-25T06:09:53.934Z,39.29
2022-08-25T06:12:21.881Z,39.26
2022-08-25T06:14:50.778Z,39.11
2022-08-25T06:17:18.242Z,38.43
2022-08-25T06:19:45.804Z,38.53
2022-08-25T06:22:13.210Z,38.61
2022-08-25T06:24:40.749Z,38.62
2022-08-25T06:27:08.232Z,38.48
2022-08-25T06:29:36.156Z,38.35
2022-08-25T06:32:05.735Z,37.97
2022-08-25T06:34:33.894Z,37.92
2022-08-25T06:37:01.362Z,37.68
2022-08-25T06:39:29.026Z,37.66
2022-08-25T06:41:56.921Z,38.30
2022-08-25T06:44:27.759Z,38.31
2022-08-25T06:46:55.487Z,37.89
2022-08-25T06:49:23.302Z,37.45
2022-08-25T06:51:50.785Z,37.28
2022-08-25T06:54:18.180Z,36.96
2022-08-25T06:56:45.646Z,36.62
2022-08-25T06:59:13.491Z,36.24
2022-08-25T07:01:41.339Z,36.31
2022-08-25T07:04:12.738Z,32.75
2022-08-25T07:06:40.931Z,29.03
2022-08-25T07:09:08.599Z,28.69
2022-08-25T07:11:36.659Z,28.17
2022-08-25T07:14:04.899Z,28.20
2022-08-25T07:16:33.014Z,27.66
2022-08-25T07:19:00.623Z,27.62
2022-08-25T07:21:32.609Z,26.20
2022-08-25T07:24:01.736Z,24.39
2022-08-25T07:26:38.808Z,23.17
2022-08-25T07:29:10.924Z,21.78
2022-08-25T07:31:38.446Z,21.29
2022-08-25T07:34:25.569Z,20.89
2022-08-25T07:36:54.215Z,21.12
2022-08-25T07:39:22.777Z,20.60
2022-08-25T07:41:51.772Z,20.02
2022-08-25T07:44:20.586Z,20.36
2022-08-25T07:46:48.696Z,19.78
2022-08-25T07:49:23.370Z,19.47
2022-08-25T07:52:05.360Z,19.36
2022-08-25T07:54:35.314Z,19.26
2022-08-25T07:57:04.041Z,18.91
2022-08-25T07:59:39.018Z,18.87
2022-08-25T08:02:08.325Z,18.44
2022-08-25T08:04:36.576Z,18.47
2022-08-25T08:07:04.184Z,17.98
2022-08-25T08:09:31.644Z,17.28
2022-08-25T08:11:58.980Z,17.51
2022-08-25T08:14:26.397Z,17.29
2022-08-25T08:16:54.190Z,17.01
2022-08-25T08:19:23.121Z,16.70
2022-08-25T08:21:52.298Z,17.17
2022-08-25T08:24:40.640Z,16.54
2022-08-25T08:27:09.332Z,15.90
2022-08-25T08:29:36.927Z,16.32
2022-08-25T08:32:05.056Z,16.38
2022-08-25T08:34:33.532Z,16.04
2022-08-25T08:37:00.954Z,15.75
2022-08-25T08:39:28.812Z,16.21
2022-08-25T08:42:16.787Z,15.87
2022-08-25T08:44:46.249Z,16.29
2022-08-25T08:47:32.303Z,15.82
2022-08-25T08:50:06.320Z,16.00
2022-08-25T08:52:54.030Z,15.83
2022-08-25T08:55:24.924Z,15.74
2022-08-25T08:57:55.749Z,16.71
2022-08-25T09:00:23.248Z,17.04
2022-08-25T09:02:57.848Z,16.73
2022-08-25T09:05:26.916Z,16.93
2022-08-25T09:07:56.882Z,16.88
2022-08-25T09:10:24.725Z,17.20
2022-08-25T09:12:55.479Z,16.62
2022-08-25T09:15:46.245Z,16.92
2022-08-25T09:18:18.892Z,17.05
2022-08-25T09:20:51.513Z,17.11
2022-08-25T09:23:22.895Z,17.02
2022-08-25T09:25:54.037Z,17.39
2022-08-25T09:28:49.759Z,17.43
2022-08-25T09:31:25.272Z,17.37
2022-08-25T09:33:55.708Z,17.69
2022-08-25T09:36:23.615Z,17.68
2022-08-25T09:38:51.034Z,17.75
2022-08-25T09:41:19.480Z,17.37
2022-08-25T09:43:52.707Z,17.68
2022-08-25T09:46:27.615Z,17.86
2022-08-25T09:48:56.692Z,17.83
2022-08-25T09:51:24.627Z,18.22
2022-08-25T09:53:54.070Z,18.11
2022-08-25T09:56:22.347Z,18.20
2022-08-25T09:58:49.916Z,18.44
2022-08-25T10:01:18.570Z,18.19
2022-08-25T10:04:04.327Z,18.36
2022-08-25T10:06:37.687Z,18.11
2022-08-25T10:09:06.642Z,18.24
2022-08-25T10:11:37.553Z,18.53
2022-08-25T10:14:15.736Z,18.68
2022-08-25T10:16:46.821Z,18.49
2022-08-25T10:19:23.781Z,18.45
2022-08-25T10:22:03.423Z,18.50
2022-08-25T10:24:32.556Z,18.51
2022-08-25T10:27:09.803Z,18.25
2022-08-25T10:29:55.745Z,18.02
2022-08-25T10:32:38.582Z,18.32
2022-08-25T10:35:19.128Z,18.69
2022-08-25T10:38:05.169Z,18.29
2022-08-25T10:40:52.543Z,17.92
2022-08-25T10:43:25.006Z,18.41
2022-08-25T10:45:55.303Z,17.90
2022-08-25T10:48:44.997Z,17.43
2022-08-25T10:51:18.676Z,17.38
2022-08-25T10:53:49.895Z,17.10
2022-08-25T10:56:18.071Z,17.09
2022-08-25T10:59:04.902Z,16.95
2022-08-25T11:01:53.545Z,17.56
2022-08-25T11:04:27.333Z,17.56
2022-08-25T11:07:03.603Z,17.61
2022-08-25T11:09:33.911Z,17.87
2022-08-25T11:12:09.637Z,17.98
2022-08-25T11:14:40.247Z,17.91
2022-08-25T11:17:12.790Z,17.42
2022-08-25T11:19:59.826Z,17.53
2022-08-25T11:22:27.506Z,17.67
2022-08-25T11:25:13.402Z,17.96
2022-08-25T11:27:51.507Z,17.70
2022-08-25T11:30:19.573Z,17.52
2022-08-25T11:32:47.754Z,17.71
2022-08-25T11:35:16.559Z,17.83
2022-08-25T11:38:07.722Z,18.19
2022-08-25T11:40:38.666Z,18.69
2022-08-25T11:43:11.971Z,18.70
2022-08-25T11:45:45.982Z,18.63
2022-08-25T11:48:18.370Z,18.86
2022-08-25T11:51:12.528Z,18.89
2022-08-25T11:53:42.134Z,18.92
2022-08-25T11:56:10.863Z,19.24
2022-08-25T11:58:53.905Z,19.57
2022-08-25T12:01:44.601Z,19.61
2022-08-25T12:04:16.232Z,19.41
2022-08-25T12:07:02.448Z,19.79
2022-08-25T12:09:30.327Z,19.85
2022-08-25T12:11:58.442Z,19.63
2022-08-25T12:14:28.118Z,19.63
2022-08-25T12:16:56.465Z,19.84
2022-08-25T12:19:24.974Z,19.78
2022-08-25T12:21:56.277Z,19.64
2022-08-25T12:24:47.778Z,19.81
2022-08-25T12:27:25.127Z,19.44
2022-08-25T12:30:05.762Z,20.27
2022-08-25T12:32:37.872Z,19.75
2022-08-25T12:35:17.372Z,20.25
2022-08-25T12:37:58.421Z,19.96
2022-08-25T12:40:31.824Z,19.34
2022-08-25T12:43:04.160Z,19.55
2022-08-25T12:45:35.341Z,19.39
2022-08-25T12:48:21.682Z,19.90
2022-08-25T12:50:50.567Z,20.14
2022-08-25T12:53:17.980Z,20.13
2022-08-25T12:55:50.139Z,19.97
2022-08-25T12:58:18.221Z,20.02
2022-08-25T13:00:45.755Z,20.32
2022-08-25T13:03:21.877Z,19.95
2022-08-25T13:05:58.590Z,19.73
2022-08-25T13:08:47.962Z,19.26
2022-08-25T13:11:20.392Z,19.39
2022-08-25T13:13:51.754Z,19.19
2022-08-25T13:16:20.358Z,18.96
2022-08-25T13:18:51.662Z,19.59
2022-08-25T13:21:19.295Z,19.41
2022-08-25T13:23:48.989Z,20.28
2022-08-25T13:26:17.496Z,22.09
2022-08-25T13:28:50.480Z,23.10
2022-08-25T13:31:19.153Z,23.22
2022-08-25T13:33:54.737Z,23.09
2022-08-25T13:36:45.228Z,23.35
2022-08-25T13:39:45.717Z,22.53
2022-08-25T13:42:15.493Z,22.25
2022-08-25T13:44:51.654Z,22.25
2022-08-25T13:47:32.288Z,22.07
2022-08-25T13:50:18.304Z,21.73
2022-08-25T13:52:51.699Z,21.54
2022-08-25T13:55:28.543Z,22.46
2022-08-25T13:57:59.012Z,21.66
2022-08-25T14:00:32.431Z,22.00
2022-08-25T14:03:02.161Z,21.94
2022-08-25T14:05:41.408Z,22.59
2022-08-25T14:08:28.454Z,22.23
2022-08-25T14:11:03.513Z,22.34
2022-08-25T14:13:32.773Z,23.10
2022-08-25T14:16:07.814Z,22.76
2022-08-25T14:18:35.421Z,22.57
2022-08-25T14:21:04.121Z,22.56
2022-08-25T14:23:32.238Z,22.74
2022-08-25T14:25:59.810Z,22.86
2022-08-25T14:28:29.172Z,23.31
2022-08-25T14:30:57.240Z,23.07
2022-08-25T14:33:28.896Z,22.92
2022-08-25T14:35:58.258Z,22.60
2022-08-25T14:38:25.971Z,23.10
2022-08-25T14:40:53.656Z,23.24
2022-08-25T14:43:24.114Z,23.55
2022-08-25T14:46:00.027Z,23.80
2022-08-25T14:48:31.638Z,24.19
2022-08-25T14:50:59.147Z,23.76
2022-08-25T14:53:26.996Z,23.66
2022-08-25T14:55:59.110Z,23.50
2022-08-25T14:58:27.575Z,23.51
2022-08-25T15:01:01.392Z,23.88
2022-08-25T15:03:34.429Z,24.00
2022-08-25T15:06:02.799Z,24.00
2022-08-25T15:08:50.429Z,24.05
2022-08-25T15:11:17.995Z,23.79
2022-08-25T15:13:49.375Z,23.91
2022-08-25T15:16:33.968Z,24.35
2022-08-25T15:19:06.813Z,24.31
2022-08-25T15:21:35.692Z,24.53
2022-08-25T15:24:04.541Z,24.69
2022-08-25T15:26:33.918Z,24.57
2022-08-25T15:29:01.923Z,24.53
2022-08-25T15:31:29.601Z,24.63
2022-08-25T15:33:57.185Z,24.94
2022-08-25T15:36:24.865Z,24.83
2022-08-25T15:38:53.135Z,24.99
2022-08-25T15:41:22.547Z,25.22
2022-08-25T15:43:54.924Z,25.04
2022-08-25T15:46:24.294Z,25.19
2022-08-25T15:48:52.040Z,25.43
2022-08-25T15:51:19.495Z,25.80
2022-08-25T15:53:46.893Z,25.85
2022-08-25T15:56:26.369Z,25.54
2022-08-25T15:58:55.641Z,25.84
2022-08-25T16:01:24.771Z,25.87
2022-08-25T16:03:52.645Z,22.63
2022-08-25T16:06:20.242Z,20.68
2022-08-25T16:08:48.432Z,20.68
2022-08-25T16:11:19.928Z,20.60
2022-08-25T16:13:49.072Z,21.07
2022-08-25T16:16:18.293Z,20.78
2022-08-25T16:18:46.116Z,20.54
2022-08-25T16:21:17.400Z,20.77
2022-08-25T16:23:45.676Z,21.12
2022-08-25T16:26:13.201Z,21.03
2022-08-25T16:28:43.723Z,21.27
2022-08-25T16:31:12.399Z,21.11
2022-08-25T16:36:07.997Z,21.77
2022-08-25T16:38:36.698Z,21.97
2022-08-25T16:41:11.345Z,21.76
2022-08-25T16:43:39.941Z,22.03
2022-08-25T16:46:08.255Z,22.04
2022-08-25T16:48:36.180Z,22.12
2022-08-25T16:51:09.112Z,22.10
2022-08-25T16:53:55.092Z,22.20
2022-08-25T16:56:24.973Z,22.25
2022-08-25T16:58:55.580Z,22.17
2022-08-25T17:01:25.447Z,22.11
2022-08-25T17:03:53.601Z,22.22
2022-08-25T17:06:21.137Z,22.08
2022-08-25T17:08:50.979Z,22.06
2022-08-25T17:11:22.544Z,22.11
2022-08-25T17:13:51.216Z,22.23
2022-08-25T17:16:20.271Z,22.68
2022-08-25T17:18:48.183Z,22.59
2022-08-25T17:21:24.473Z,22.54
2022-08-25T17:23:53.376Z,22.64
2022-08-25T17:26:28.051Z,23.23
2022-08-25T17:28:57.252Z,23.27
2022-08-25T17:31:27.088Z,22.32
2022-08-25T17:33:56.364Z,22.52
2022-08-25T17:36:26.867Z,22.71
2022-08-25T17:38:55.380Z,22.76
2022-08-25T17:41:24.595Z,23.25
2022-08-25T17:43:52.373Z,23.02
2022-08-25T17:46:21.182Z,22.69
2022-08-25T17:48:48.568Z,23.00
2022-08-25T17:51:16.435Z,22.68
2022-08-25T17:53:43.961Z,22.95
2022-08-25T17:56:14.141Z,23.36
2022-08-25T17:58:41.822Z,23.00
2022-08-25T18:01:14.957Z,22.51
2022-08-25T18:03:43.619Z,22.51
2022-08-25T18:06:12.259Z,22.67
2022-08-25T18:08:43.037Z,22.60
2022-08-25T18:11:10.826Z,22.28
2022-08-25T18:13:38.940Z,22.17
2022-08-25T18:16:07.585Z,21.90
2022-08-25T18:18:37.002Z,22.20
2022-08-25T18:21:05.240Z,22.00
2022-08-25T18:23:34.349Z,22.01
2022-08-25T18:26:02.721Z,22.32
2022-08-25T18:28:30.344Z,22.65
2022-08-25T18:30:57.867Z,22.48
2022-08-25T18:33:25.716Z,22.56
2022-08-25T18:35:58.086Z,22.86
2022-08-25T18:38:44.499Z,22.99
2022-08-25T18:41:13.505Z,22.83
2022-08-25T18:43:41.838Z,22.67
2022-08-25T18:46:10.100Z,22.80
2022-08-25T18:48:37.738Z,24.08
2022-08-25T18:51:05.695Z,24.89
2022-08-25T18:53:37.107Z,25.45
2022-08-25T18:56:18.211Z,26.37
2022-08-25T18:58:47.201Z,26.98
2022-08-25T19:01:17.788Z,26.78
2022-08-25T19:03:46.502Z,27.55
2022-08-25T19:06:14.086Z,27.10
2022-08-25T19:08:42.419Z,27.56
2022-08-25T19:11:11.443Z,27.11
2022-08-25T19:13:40.313Z,26.61
2022-08-25T19:16:09.905Z,26.40
2022-08-25T19:18:39.158Z,26.82
2022-08-25T19:21:07.523Z,27.15
2022-08-25T19:23:39.000Z,27.63
2022-08-25T19:26:07.946Z,27.57
2022-08-25T19:28:41.295Z,28.34
2022-08-25T19:31:13.614Z,27.94
2022-08-25T19:33:44.797Z,28.32
2022-08-25T19:36:13.086Z,28.85
2022-08-25T19:38:40.510Z,28.49
2022-08-25T19:41:10.403Z,28.61
2022-08-25T19:43:56.249Z,28.45
2022-08-25T19:46:26.185Z,28.93
2022-08-25T19:49:09.099Z,28.86
2022-08-25T19:51:37.940Z,28.73
2022-08-25T19:54:05.845Z,28.84
2022-08-25T19:56:36.398Z,28.82
2022-08-25T19:59:04.457Z,28.99
2022-08-25T20:01:32.441Z,28.58
2022-08-25T20:04:03.682Z,28.46
2022-08-25T20:06:31.622Z,28.66
2022-08-25T20:09:00.659Z,28.95
2022-08-25T20:11:28.543Z,29.14
2022-08-25T20:13:58.123Z,28.99
2022-08-25T20:16:28.498Z,29.14
2022-08-25T20:18:55.988Z,29.33
2022-08-25T20:21:24.834Z,29.54
2022-08-25T20:24:10.978Z,29.19
2022-08-25T20:26:38.575Z,29.19
2022-08-25T20:29:08.270Z,29.26
2022-08-25T20:31:35.726Z,29.15
2022-08-25T20:34:03.308Z,29.59
2022-08-25T20:36:31.592Z,29.72
2022-08-25T20:38:59.284Z,29.20
2022-08-25T20:41:26.831Z,29.66
2022-08-25T20:43:54.465Z,29.31
2022-08-25T20:46:23.018Z,29.36
2022-08-25T20:48:50.736Z,29.26
2022-08-25T20:51:20.090Z,29.78
2022-08-25T20:53:51.957Z,29.71
2022-08-25T20:56:19.441Z,29.55
2022-08-25T20:58:47.789Z,29.47
2022-08-25T21:01:22.884Z,29.94
2022-08-25T21:03:50.631Z,29.62
2022-08-25T21:06:18.299Z,29.26
2022-08-25T21:08:47.023Z,29.34
2022-08-25T21:11:18.041Z,29.61
2022-08-25T21:13:48.626Z,29.63
2022-08-25T21:16:18.026Z,29.58
2022-08-25T21:18:48.030Z,29.63
2022-08-25T21:21:16.669Z,29.66
2022-08-25T21:23:45.011Z,30.14
2022-08-25T21:26:16.386Z,29.83
2022-08-25T21:28:47.532Z,30.39
2022-08-25T21:31:16.264Z,29.97
2022-08-25T21:33:46.212Z,30.09
2022-08-25T21:36:21.187Z,30.29
2022-08-25T21:38:48.992Z,30.05
2022-08-25T21:41:17.207Z,30.08
2022-08-25T21:43:45.200Z,30.52
2022-08-25T21:46:17.107Z,30.27
2022-08-25T21:48:46.849Z,29.72
2022-08-25T21:51:15.614Z,29.67
2022-08-25T21:53:43.150Z,29.81
2022-08-25T21:56:16.054Z,29.75
2022-08-25T21:58:45.375Z,29.78
2022-08-25T22:01:17.806Z,29.77
2022-08-25T22:03:47.201Z,30.12
2022-08-25T22:06:16.426Z,30.01
2022-08-25T22:08:43.939Z,30.61
2022-08-25T22:11:11.494Z,30.05
2022-08-25T22:13:41.246Z,31.00
2022-08-25T22:16:11.993Z,31.15
2022-08-25T22:18:39.915Z,30.68
2022-08-25T22:21:09.881Z,30.27
2022-08-25T22:23:44.261Z,30.53
2022-08-25T22:26:12.588Z,30.50
2022-08-25T22:28:42.707Z,30.02
2022-08-25T22:31:13.964Z,30.71
2022-08-25T22:33:48.477Z,30.80
2022-08-25T22:36:24.784Z,31.18
2022-08-25T22:38:52.840Z,30.67
2022-08-25T22:41:21.564Z,30.57
2022-08-25T22:43:49.556Z,29.92
2022-08-25T22:46:19.067Z,30.15
2022-08-25T22:48:46.494Z,30.48
2022-08-25T22:51:19.524Z,30.61
2022-08-25T22:53:47.129Z,30.55
2022-08-25T22:56:17.169Z,30.42
2022-08-25T22:58:51.829Z,30.26
2022-08-25T23:01:19.808Z,30.40
2022-08-25T23:03:47.633Z,30.44
2022-08-25T23:06:19.674Z,30.41
2022-08-25T23:08:49.707Z,29.88
2022-08-25T23:11:17.322Z,30.77
2022-08-25T23:13:45.075Z,29.24
2022-08-25T23:16:14.701Z,29.46
2022-08-25T23:18:43.898Z,29.83
2022-08-25T23:21:34.998Z,30.15
2022-08-25T23:24:02.820Z,30.04
2022-08-25T23:26:31.902Z,30.59
2022-08-25T23:28:59.360Z,30.15
2022-08-25T23:31:26.816Z,30.45
2022-08-25T23:33:56.532Z,30.67
2022-08-25T23:36:24.012Z,30.30
2022-08-25T23:38:51.960Z,30.70
2022-08-25T23:41:20.405Z,30.45
2022-08-25T23:43:48.900Z,30.27
2022-08-25T23:46:17.188Z,30.90
2022-08-25T23:48:44.704Z,30.72
2022-08-25T23:51:12.880Z,30.62
2022-08-25T23:53:40.246Z,30.93
2022-08-25T23:56:07.726Z,30.44
2022-08-25T23:58:36.029Z,30.56
